Time;durP1;ratioP1;P1;durP2;ratioP2;P2;SDS_P1;SDS_P2;PMS_P1;PMS_P2;Temp;Humidity;BMP_temperature;BMP_pressure;BME280_temperature;BME280_humidity;BME280_pressure;Samples;Min_cycle;Max_cycle;Signal;HPM_P1;HPM_P2
2022/09/13 00:01:08;;;;;;;;;;;;;;;24.66;58.36;98318.34;5056526;28;19921;-49
2022/09/13 00:03:33;;;;;;;;;;;;;;;24.68;58.67;98316.16;5056498;28;19916;-49
2022/09/13 00:06:06;;;;;;;;;;;;;;;24.62;59.02;98306.63;5074497;28;19962;-49
2022/09/13 00:08:31;;;;;;;;;;;;;;;24.66;59.07;98314.88;5056597;28;19920;-49
2022/09/13 00:10:57;;;;;;;;;;;;;;;24.70;59.19;98307.81;5056393;28;20429;-50
2022/09/13 00:13:22;;;;;;;;;;;;;;;24.85;59.32;98312.84;5074151;28;19917;-50
2022/09/13 00:15:49;;;;;;;;;;;;;;;24.87;58.71;98299.91;5074247;28;20291;-49
2022/09/13 00:18:15;;;;;;;;;;;;;;;25.00;59.00;98294.81;5074274;28;20053;-49
2022/09/13 00:20:40;;;;;;;;;;;;;;;25.08;58.94;98292.16;5074126;28;19917;-49
2022/09/13 00:23:06;;;;;;;;;;;;;;;25.07;58.53;98295.97;5074106;28;19931;-49
2022/09/13 00:25:32;;;;;;;;;;;;;;;24.98;59.14;98294.31;5074019;28;19928;-49
2022/09/13 00:27:57;;;;;;;;;;;;;;;24.96;59.22;98307.25;5074070;28;20405;-48
2022/09/13 00:30:22;;;;;;;;;;;;;;;25.18;58.99;98296.50;5073943;28;19967;-49
2022/09/13 00:32:48;;;;;;;;;;;;;;;25.32;58.43;98296.47;5073908;28;19966;-49
2022/09/13 00:35:13;;;;;;;;;;;;;;;25.38;58.55;98289.88;5056148;28;20382;-49
2022/09/13 00:37:39;;;;;;;;;;;;;;;25.37;58.16;98290.94;5073841;28;19920;-49
2022/09/13 00:40:05;;;;;;;;;;;;;;;25.36;58.08;98291.28;5055768;28;19916;-49
2022/09/13 00:42:34;;;;;;;;;;;;;;;25.19;58.85;98294.59;5074020;28;19917;-49
2022/09/13 00:45:14;;;;;;;;;;;;;;;25.09;59.15;98271.47;5055700;28;19942;-50
2022/09/13 00:47:39;;;;;;;;;;;;;;;24.96;59.12;98283.09;5055702;28;19920;-49
2022/09/13 00:50:13;;;;;;;;;;;;;;;24.81;59.67;98294.97;5073598;28;19916;-49
2022/09/13 00:52:40;;;;;;;;;;;;;;;24.68;60.03;98293.91;5073638;28;19916;-49
2022/09/13 00:55:07;;;;;;;;;;;;;;;24.88;60.48;98298.03;5055506;28;19931;-48
2022/09/13 00:57:35;;;;;;;;;;;;;;;24.90;59.87;98280.50;5073414;28;20302;-49
2022/09/13 01:00:13;;;;;;;;;;;;;;;24.91;59.99;98282.09;5073307;28;19916;-49
2022/09/13 01:02:40;;;;;;;;;;;;;;;24.89;59.85;98289.69;5055429;28;20386;-49
2022/09/13 01:05:06;;;;;;;;;;;;;;;24.62;60.46;98284.38;5073345;28;19916;-49
2022/09/13 01:07:32;;;;;;;;;;;;;;;24.33;61.37;98283.63;5073221;28;19923;-49
2022/09/13 01:09:57;;;;;;;;;;;;;;;24.13;61.37;98268.75;5073173;28;19917;-50
2022/09/13 01:12:32;;;;;;;;;;;;;;;24.12;62.47;98267.16;5073157;28;20058;-49
2022/09/13 01:14:59;;;;;;;;;;;;;;;24.03;63.11;98263.59;5073032;28;20026;-49
2022/09/13 01:17:29;;;;;;;;;;;;;;;24.24;62.65;98266.63;5055100;28;19916;-49
2022/09/13 01:19:54;;;;;;;;;;;;;;;24.41;62.22;98274.06;5072922;28;19916;-48
2022/09/13 01:22:20;;;;;;;;;;;;;;;24.34;62.09;98273.69;5054939;28;20306;-49
2022/09/13 01:24:51;;;;;;;;;;;;;;;24.24;62.60;98263.97;5072347;28;19959;-49
2022/09/13 01:27:37;;;;;;;;;;;;;;;24.03;62.84;98268.16;5051355;28;20469;-49
2022/09/13 01:30:08;;;;;;;;;;;;;;;23.90;63.80;98265.22;5051384;28;19921;-49
2022/09/13 01:32:34;;;;;;;;;;;;;;;23.93;63.93;98258.44;5051453;28;19924;-49
2022/09/13 01:35:21;;;;;;;;;;;;;;;23.90;63.96;98261.72;5052763;28;19916;-49
2022/09/13 01:37:50;;;;;;;;;;;;;;;23.85;64.40;98251.09;5052828;28;20378;-50
2022/09/13 01:40:22;;;;;;;;;;;;;;;23.80;64.48;98257.34;5051282;28;19925;-49
2022/09/13 01:43:11;;;;;;;;;;;;;;;23.73;65.79;98246.22;5051371;28;20343;-48
2022/09/13 01:45:37;;;;;;;;;;;;;;;23.49;66.72;98249.84;5052633;28;19921;-48
2022/09/13 01:48:35;;;;;;;;;;;;;;;23.32;66.47;98253.09;5052504;28;19924;-50
2022/09/13 01:51:04;;;;;;;;;;;;;;;23.32;66.67;98246.94;5039649;28;19917;-49
2022/09/13 01:53:48;;;;;;;;;;;;;;;23.28;66.27;98251.28;5051165;28;19924;-49
2022/09/13 01:56:20;;;;;;;;;;;;;;;23.33;66.33;98254.69;5052385;28;19916;-49
2022/09/13 01:58:49;;;;;;;;;;;;;;;23.43;66.12;98256.38;5052449;28;19916;-49
2022/09/13 02:01:23;;;;;;;;;;;;;;;23.75;65.87;98248.59;5050950;28;19956;-49
2022/09/13 02:03:55;;;;;;;;;;;;;;;23.98;64.54;98252.19;5051061;28;20413;-50
2022/09/13 02:06:23;;;;;;;;;;;;;;;24.02;64.39;98256.63;5050954;28;20303;-48
2022/09/13 02:08:52;;;;;;;;;;;;;;;24.00;64.03;98250.78;5050927;28;19916;-49
2022/09/13 02:11:21;;;;;;;;;;;;;;;23.92;64.18;98248.81;5050920;28;19917;-50
2022/09/13 02:13:50;;;;;;;;;;;;;;;23.88;64.36;98240.56;5050916;28;19925;-49
2022/09/13 02:16:25;;;;;;;;;;;;;;;23.81;64.36;98245.53;5052181;28;20386;-49
2022/09/13 02:18:54;;;;;;;;;;;;;;;23.80;65.02;98251.97;5052186;28;20349;-49
2022/09/13 02:21:26;;;;;;;;;;;;;;;23.69;65.79;98262.06;5050686;28;19970;-48
2022/09/13 02:24:05;;;;;;;;;;;;;;;23.26;67.67;98256.16;5050823;28;20019;-48
2022/09/13 02:26:33;;;;;;;;;;;;;;;22.71;70.30;98264.75;5065203;28;20380;-48
2022/09/13 02:29:01;;;;;;;;;;;;;;;22.43;72.01;98261.94;5072053;28;19966;-48
2022/09/13 02:31:42;;;;;;;;;;;;;;;22.46;71.78;98268.59;5071980;28;19927;-49
2022/09/13 02:34:20;;;;;;;;;;;;;;;22.59;71.86;98267.84;5072039;28;20386;-49
2022/09/13 02:36:48;;;;;;;;;;;;;;;22.77;70.73;98268.16;5053935;28;19923;-50
2022/09/13 02:39:18;;;;;;;;;;;;;;;22.91;70.19;98260.97;5076065;28;19920;-49
2022/09/13 02:41:56;;;;;;;;;;;;;;;23.01;69.74;98257.34;5058081;28;20007;-49
2022/09/13 02:44:22;;;;;;;;;;;;;;;23.04;69.16;98251.44;5075985;28;19924;-49
2022/09/13 02:46:50;;;;;;;;;;;;;;;23.07;69.46;98243.59;5057934;28;20003;-49
2022/09/13 02:49:19;;;;;;;;;;;;;;;23.09;68.79;98232.63;5057889;28;19917;-49
2022/09/13 02:51:55;;;;;;;;;;;;;;;23.13;68.89;98233.63;5076161;28;19947;-49
2022/09/13 02:54:36;;;;;;;;;;;;;;;23.22;68.34;98229.19;5075824;28;19916;-49
2022/09/13 02:57:01;;;;;;;;;;;;;;;23.25;68.15;98220.56;5075772;28;20011;-49
2022/09/13 02:59:27;;;;;;;;;;;;;;;23.29;67.80;98218.09;5057671;28;19951;-49
2022/09/13 03:01:58;;;;;;;;;;;;;;;23.33;67.17;98211.84;5057717;28;20380;-48
2022/09/13 03:04:24;;;;;;;;;;;;;;;23.23;66.73;98219.25;5075593;28;20002;-49
2022/09/13 03:06:52;;;;;;;;;;;;;;;23.10;67.32;98229.66;5057517;28;20023;-49
2022/09/13 03:09:19;;;;;;;;;;;;;;;23.02;67.09;98224.16;5057569;28;19920;-49
2022/09/13 03:11:53;;;;;;;;;;;;;;;22.95;67.08;98240.56;5075444;28;20275;-49
2022/09/13 03:14:31;;;;;;;;;;;;;;;22.85;67.55;98240.72;5075411;28;19981;-49
2022/09/13 03:17:12;;;;;;;;;;;;;;;22.77;67.78;98233.38;5057481;28;19924;-49
2022/09/13 03:19:55;;;;;;;;;;;;;;;22.77;67.83;98236.06;5057338;28;20390;-49
2022/09/13 03:22:39;;;;;;;;;;;;;;;22.82;67.68;98234.09;5057448;28;20011;-49
2022/09/13 03:25:10;;;;;;;;;;;;;;;22.76;67.39;98248.63;5056989;28;19970;-48
2022/09/13 03:27:41;;;;;;;;;;;;;;;22.67;67.64;98250.38;5075265;28;19923;-48
2022/09/13 03:30:08;;;;;;;;;;;;;;;22.55;68.10;98253.47;5075083;28;20389;-49
2022/09/13 03:32:37;;;;;;;;;;;;;;;22.46;68.29;98252.56;5057049;28;20007;-49
2022/09/13 03:35:21;;;;;;;;;;;;;;;22.45;68.78;98259.75;5057112;28;19974;-49
2022/09/13 03:37:54;;;;;;;;;;;;;;;22.44;68.60;98262.75;5074960;28;20326;-48
2022/09/13 03:40:25;;;;;;;;;;;;;;;22.39;68.40;98258.25;5056941;28;19970;-49
2022/09/13 03:42:57;;;;;;;;;;;;;;;22.31;68.70;98240.16;5074948;28;19917;-49
2022/09/13 03:45:26;;;;;;;;;;;;;;;22.25;69.49;98230.63;5075075;28;20373;-49
2022/09/13 03:47:52;;;;;;;;;;;;;;;22.31;69.58;98232.16;5056248;28;20340;-49
2022/09/13 03:50:22;;;;;;;;;;;;;;;22.30;69.05;98227.91;5057279;28;19966;-49
2022/09/13 03:52:53;;;;;;;;;;;;;;;22.24;69.29;98229.06;5074712;28;20301;-48
2022/09/13 03:55:20;;;;;;;;;;;;;;;22.20;69.05;98230.69;5056661;28;20306;-49
2022/09/13 03:57:46;;;;;;;;;;;;;;;22.30;69.50;98220.66;5074683;28;19921;-49
2022/09/13 04:00:12;;;;;;;;;;;;;;;22.41;68.90;98209.81;5074556;28;19962;-49
2022/09/13 04:02:38;;;;;;;;;;;;;;;22.59;68.81;98202.88;5074568;28;19923;-49
2022/09/13 04:05:03;;;;;;;;;;;;;;;22.66;68.22;98182.72;5074744;28;19916;-49
2022/09/13 04:07:29;;;;;;;;;;;;;;;22.59;68.04;98171.56;5056587;28;19982;-49
2022/09/13 04:09:54;;;;;;;;;;;;;;;22.56;68.06;98169.50;5074404;28;19916;-49
2022/09/13 04:12:21;;;;;;;;;;;;;;;22.48;68.32;98183.53;5074330;28;20298;-49
2022/09/13 04:14:47;;;;;;;;;;;;;;;22.51;67.82;98215.03;5074377;28;19920;-49
2022/09/13 04:17:13;;;;;;;;;;;;;;;22.38;67.81;98221.13;5056256;28;19922;-49
2022/09/13 04:19:39;;;;;;;;;;;;;;;22.30;67.81;98239.38;5074199;28;19917;-49
2022/09/13 04:22:05;;;;;;;;;;;;;;;22.26;68.25;98221.53;5056335;28;19916;-49
2022/09/13 04:24:30;;;;;;;;;;;;;;;22.23;68.25;98212.16;5074122;28;19922;-49
2022/09/13 04:26:56;;;;;;;;;;;;;;;22.23;68.45;98227.41;5055915;28;19971;-49
2022/09/13 04:29:22;;;;;;;;;;;;;;;22.27;68.67;98221.22;5074059;28;20370;-49
2022/09/13 04:31:49;;;;;;;;;;;;;;;22.39;68.86;98225.38;5074000;28;19986;-48
2022/09/13 04:34:17;;;;;;;;;;;;;;;22.62;68.64;98221.03;5073934;28;19917;-50
2022/09/13 04:36:44;;;;;;;;;;;;;;;22.70;67.56;98210.47;5055910;28;19917;-49
2022/09/13 04:39:10;;;;;;;;;;;;;;;22.84;67.16;98215.88;5073911;28;19917;-49
2022/09/13 04:41:35;;;;;;;;;;;;;;;22.77;67.18;98199.38;5073724;28;19917;-50
2022/09/13 04:44:01;;;;;;;;;;;;;;;22.65;67.08;98205.19;5073728;28;19924;-49
2022/09/13 04:46:27;;;;;;;;;;;;;;;22.53;67.29;98216.31;5074282;28;20285;-49
2022/09/13 04:48:53;;;;;;;;;;;;;;;22.45;67.55;98221.53;5073636;28;19917;-49
2022/09/13 04:51:20;;;;;;;;;;;;;;;22.34;67.61;98208.31;5073595;28;20294;-49
2022/09/13 04:53:46;;;;;;;;;;;;;;;22.29;68.42;98204.91;5073609;28;19952;-49
2022/09/13 04:56:14;;;;;;;;;;;;;;;22.34;68.27;98212.88;5055551;28;20004;-47
2022/09/13 04:58:40;;;;;;;;;;;;;;;22.29;68.05;98218.28;5073453;28;19923;-48
2022/09/13 05:01:07;;;;;;;;;;;;;;;22.28;68.24;98222.84;5072451;28;19917;-49
2022/09/13 05:03:33;;;;;;;;;;;;;;;22.24;68.23;98215.69;5055478;28;19978;-49
2022/09/13 05:06:02;;;;;;;;;;;;;;;22.13;68.52;98214.97;5055411;28;20389;-49
2022/09/13 05:08:27;;;;;;;;;;;;;;;22.13;68.48;98212.31;5073275;28;19916;-49
2022/09/13 05:10:53;;;;;;;;;;;;;;;22.13;68.54;98209.63;5073206;28;19917;-49
2022/09/13 05:13:18;;;;;;;;;;;;;;;22.10;68.45;98211.00;5055167;28;19921;-49
2022/09/13 05:15:44;;;;;;;;;;;;;;;22.33;68.29;98213.94;5073068;28;19970;-49
2022/09/13 05:18:09;;;;;;;;;;;;;;;22.64;67.30;98208.94;5073070;28;19916;-49
2022/09/13 05:20:34;;;;;;;;;;;;;;;23.07;67.01;98202.66;5072913;28;20365;-49
2022/09/13 05:23:00;;;;;;;;;;;;;;;23.43;65.67;98197.47;5072972;28;19923;-50
2022/09/13 05:25:25;;;;;;;;;;;;;;;23.64;64.63;98187.19;5072720;28;20298;-50
2022/09/13 05:27:51;;;;;;;;;;;;;;;23.70;64.75;98201.25;5072966;28;19916;-47
2022/09/13 05:30:16;;;;;;;;;;;;;;;23.79;64.22;98196.81;5072811;28;20370;-49
2022/09/13 05:32:42;;;;;;;;;;;;;;;24.07;63.99;98188.75;5054903;28;19922;-48
2022/09/13 05:35:08;;;;;;;;;;;;;;;24.29;62.25;98206.75;5072689;28;19920;-47
2022/09/13 05:37:33;;;;;;;;;;;;;;;24.23;62.43;98194.56;5072690;28;20400;-48
2022/09/13 05:39:59;;;;;;;;;;;;;;;24.64;61.85;98194.44;5072595;28;19916;-48
2022/09/13 05:42:24;;;;;;;;;;;;;;;24.79;60.86;98182.56;5054669;28;19964;-49
2022/09/13 05:44:50;;;;;;;;;;;;;;;24.80;60.30;98186.81;5072586;28;19916;-48
2022/09/13 05:47:15;;;;;;;;;;;;;;;24.54;60.79;98177.78;5072577;28;19917;-49
2022/09/13 05:49:44;;;;;;;;;;;;;;;24.23;61.05;98191.88;5072573;28;20394;-48
2022/09/13 05:52:09;;;;;;;;;;;;;;;24.04;61.91;98195.47;5072474;28;19916;-48
2022/09/13 05:54:36;;;;;;;;;;;;;;;23.86;62.42;98196.41;5072439;28;19916;-46
2022/09/13 05:57:02;;;;;;;;;;;;;;;23.68;63.06;98206.91;5072408;28;19921;-47
2022/09/13 05:59:31;;;;;;;;;;;;;;;23.59;63.50;98215.94;5054488;28;19940;-47
2022/09/13 06:01:56;;;;;;;;;;;;;;;23.63;63.20;98215.03;5072345;28;19922;-48
2022/09/13 06:04:22;;;;;;;;;;;;;;;23.58;62.88;98217.81;5054630;28;19917;-46
2022/09/13 06:06:48;;;;;;;;;;;;;;;23.47;62.78;98219.09;5072263;28;20302;-48
2022/09/13 06:09:13;;;;;;;;;;;;;;;23.38;62.73;98223.53;5072264;28;19951;-47
2022/09/13 06:11:38;;;;;;;;;;;;;;;23.26;62.88;98227.50;5072237;28;19924;-47
2022/09/13 06:14:07;;;;;;;;;;;;;;;23.19;63.31;98229.75;5072272;28;19923;-48
2022/09/13 06:16:33;;;;;;;;;;;;;;;23.15;63.38;98217.28;5072236;28;19955;-47
2022/09/13 06:18:59;;;;;;;;;;;;;;;23.12;63.04;98218.66;5072155;28;19924;-47
2022/09/13 06:21:24;;;;;;;;;;;;;;;23.11;63.36;98209.03;5072051;28;19921;-48
2022/09/13 06:23:51;;;;;;;;;;;;;;;23.12;63.32;98197.25;5072130;28;20306;-48
2022/09/13 06:26:21;;;;;;;;;;;;;;;23.18;63.34;98206.78;5050662;28;19967;-47
2022/09/13 06:28:48;;;;;;;;;;;;;;;23.28;62.55;98203.09;5052058;28;20313;-49
2022/09/13 06:31:15;;;;;;;;;;;;;;;23.38;61.91;98204.78;5052015;28;19917;-49
2022/09/13 06:33:41;;;;;;;;;;;;;;;23.33;62.10;98213.72;5051956;28;19920;-47
2022/09/13 06:36:11;;;;;;;;;;;;;;;23.25;62.22;98212.53;5051992;28;20007;-47
2022/09/13 06:38:38;;;;;;;;;;;;;;;23.19;62.35;98203.00;5050692;28;19921;-47
2022/09/13 06:41:14;;;;;;;;;;;;;;;23.21;62.51;98200.81;5051849;28;20003;-46
2022/09/13 06:43:39;;;;;;;;;;;;;;;23.36;61.52;98205.09;5051876;28;19923;-49
2022/09/13 06:46:07;;;;;;;;;;;;;;;23.42;60.94;98206.59;5050573;28;19917;-48
2022/09/13 06:48:34;;;;;;;;;;;;;;;23.59;59.41;98200.66;5050611;28;20302;-48
2022/09/13 06:51:00;;;;;;;;;;;;;;;23.65;58.51;98193.31;5050791;28;19917;-47
2022/09/13 06:53:29;;;;;;;;;;;;;;;23.64;59.08;98197.88;5051831;28;19924;-48
2022/09/13 06:56:01;;;;;;;;;;;;;;;23.66;59.06;98206.41;5051745;28;19928;-48
2022/09/13 06:58:28;;;;;;;;;;;;;;;23.73;58.21;98200.66;5050499;28;19917;-48
2022/09/13 07:00:54;;;;;;;;;;;;;;;23.69;58.08;98205.81;5051683;28;19924;-48
2022/09/13 07:03:19;;;;;;;;;;;;;;;23.98;57.63;98196.69;5051785;28;19916;-49
2022/09/13 07:05:45;;;;;;;;;;;;;;;24.45;56.15;98194.59;5050418;28;19924;-49
2022/09/13 07:08:10;;;;;;;;;;;;;;;24.65;54.85;98200.59;5051673;28;19920;-49
2022/09/13 07:10:36;;;;;;;;;;;;;;;24.87;53.65;98199.78;5051710;28;19931;-48
2022/09/13 07:13:02;;;;;;;;;;;;;;;25.02;53.44;98190.56;5051642;28;19924;-47
2022/09/13 07:15:27;;;;;;;;;;;;;;;25.07;52.07;98193.13;5050374;28;20322;-48
2022/09/13 07:17:53;;;;;;;;;;;;;;;25.11;52.73;98194.91;5051618;28;19920;-47
2022/09/13 07:20:18;;;;;;;;;;;;;;;25.93;51.23;98191.91;5051537;28;20297;-48
2022/09/13 07:22:44;;;;;;;;;;;;;;;26.87;49.20;98189.56;5050339;28;19921;-49
2022/09/13 07:25:09;;;;;;;;;;;;;;;28.10;45.81;98181.78;5056874;28;20301;-50
2022/09/13 07:27:34;;;;;;;;;;;;;;;28.62;44.49;98175.19;5057282;28;19916;-50
2022/09/13 07:30:00;;;;;;;;;;;;;;;28.78;43.25;98172.66;5057131;28;20386;-47
2022/09/13 07:32:25;;;;;;;;;;;;;;;28.67;43.71;98169.59;5057162;28;19917;-47
2022/09/13 07:34:51;;;;;;;;;;;;;;;28.80;44.12;98170.44;5075281;28;19916;-48
2022/09/13 07:37:16;;;;;;;;;;;;;;;29.07;43.38;98166.31;5057027;28;19920;-49
2022/09/13 07:39:41;;;;;;;;;;;;;;;29.72;42.53;98171.91;5074890;28;19927;-50
2022/09/13 07:42:07;;;;;;;;;;;;;;;30.48;41.16;98169.47;5074938;28;19917;-50
2022/09/13 07:44:32;;;;;;;;;;;;;;;30.98;39.71;98175.47;5056979;28;19917;-48
2022/09/13 07:46:58;;;;;;;;;;;;;;;31.40;39.47;98158.69;5056878;28;20003;-50
2022/09/13 07:49:24;;;;;;;;;;;;;;;32.34;37.98;98165.06;5056913;28;19950;-48
2022/09/13 07:51:50;;;;;;;;;;;;;;;32.80;36.62;98170.59;5074776;28;19928;-50
2022/09/13 07:54:16;;;;;;;;;;;;;;;32.82;36.29;98162.06;5074760;28;19920;-49
2022/09/13 07:56:44;;;;;;;;;;;;;;;32.77;36.12;98167.81;5074924;28;19943;-51
2022/09/13 07:59:14;;;;;;;;;;;;;;;32.89;37.24;98181.22;5074650;28;19916;-50
2022/09/13 08:01:49;;;;;;;;;;;;;;;33.83;36.23;98186.28;5056519;28;19917;-50
2022/09/13 08:04:17;;;;;;;;;;;;;;;34.91;34.41;98177.47;5074570;28;20414;-49
2022/09/13 08:06:42;;;;;;;;;;;;;;;35.30;33.40;98174.34;5074425;28;19916;-48
2022/09/13 08:09:09;;;;;;;;;;;;;;;35.19;32.93;98182.44;5074428;28;20375;-49
2022/09/13 08:11:36;;;;;;;;;;;;;;;34.50;33.77;98188.31;5056369;28;19916;-50
2022/09/13 08:14:02;;;;;;;;;;;;;;;33.60;34.96;98187.06;5056389;28;19920;-51
2022/09/13 08:16:28;;;;;;;;;;;;;;;32.49;36.89;98187.06;5074315;28;19958;-49
2022/09/13 08:18:55;;;;;;;;;;;;;;;31.36;38.77;98187.66;5074556;28;19966;-50
2022/09/13 08:21:21;;;;;;;;;;;;;;;30.64;40.41;98188.50;5056163;28;19921;-48
2022/09/13 08:23:47;;;;;;;;;;;;;;;30.33;41.13;98189.97;5074231;28;20375;-50
2022/09/13 08:26:12;;;;;;;;;;;;;;;30.89;41.28;98193.81;5073908;28;20304;-49
2022/09/13 08:28:39;;;;;;;;;;;;;;;32.18;39.80;98186.84;5074069;28;19920;-49
2022/09/13 08:31:09;;;;;;;;;;;;;;;33.50;36.99;98174.09;5073876;28;19916;-51
2022/09/13 08:33:36;;;;;;;;;;;;;;;33.97;35.12;98185.69;5056033;28;19924;-50
2022/09/13 08:36:04;;;;;;;;;;;;;;;35.07;34.35;98190.06;5055854;28;19927;-51
2022/09/13 08:38:31;;;;;;;;;;;;;;;35.96;33.09;98190.78;5055957;28;19975;-49
2022/09/13 08:41:01;;;;;;;;;;;;;;;37.20;30.52;98199.00;5073905;28;19964;-50
2022/09/13 08:43:30;;;;;;;;;;;;;;;37.07;29.29;98212.28;5073804;28;19928;-50
2022/09/13 08:46:05;;;;;;;;;;;;;;;36.00;30.59;98194.31;5073726;28;20386;-49
2022/09/13 08:48:33;;;;;;;;;;;;;;;34.34;33.03;98195.91;5055814;28;20489;-50
2022/09/13 08:51:02;;;;;;;;;;;;;;;33.91;34.24;98193.41;5055575;28;19917;-50
2022/09/13 08:53:29;;;;;;;;;;;;;;;33.23;35.10;98205.94;5073545;28;19923;-49
2022/09/13 08:55:55;;;;;;;;;;;;;;;32.38;36.96;98193.06;5073410;28;19916;-49
2022/09/13 08:58:45;;;;;;;;;;;;;;;32.12;37.95;98204.56;5073741;28;19917;-51
2022/09/13 09:01:10;;;;;;;;;;;;;;;32.18;39.17;98194.22;5073421;28;19916;-50
2022/09/13 09:03:48;;;;;;;;;;;;;;;32.09;39.36;98202.53;5055420;28;19917;-48
2022/09/13 09:06:15;;;;;;;;;;;;;;;32.54;37.97;98194.91;5055412;28;19916;-49
2022/09/13 09:08:47;;;;;;;;;;;;;;;32.98;37.03;98195.38;5073581;28;20336;-48
2022/09/13 09:11:35;;;;;;;;;;;;;;;33.70;35.84;98196.59;5073171;28;19948;-49
2022/09/13 09:14:19;;;;;;;;;;;;;;;34.18;34.88;98188.72;5064770;28;20027;-50
2022/09/13 09:16:54;;;;;;;;;;;;;;;33.90;34.65;98174.69;5055176;28;20398;-49
2022/09/13 09:19:35;;;;;;;;;;;;;;;33.23;35.44;98186.91;5055143;28;19920;-49
2022/09/13 09:22:03;;;;;;;;;;;;;;;32.68;37.02;98184.34;5072977;28;20025;-48
2022/09/13 09:24:32;;;;;;;;;;;;;;;32.22;37.86;98181.50;5055104;28;19921;-50
2022/09/13 09:27:00;;;;;;;;;;;;;;;31.64;38.75;98185.63;5072665;28;19928;-50
2022/09/13 09:29:28;;;;;;;;;;;;;;;31.24;39.81;98197.44;5054994;28;19923;-50
2022/09/13 09:32:03;;;;;;;;;;;;;;;31.17;39.92;98181.00;5054916;28;19916;-50
2022/09/13 09:34:43;;;;;;;;;;;;;;;31.05;40.26;98190.00;5071999;28;20131;-49
2022/09/13 09:37:23;;;;;;;;;;;;;;;30.81;40.30;98174.63;5054692;28;19920;-50
2022/09/13 09:39:51;;;;;;;;;;;;;;;30.74;40.78;98190.69;5072697;28;19960;-51
2022/09/13 09:42:28;;;;;;;;;;;;;;;30.98;40.57;98191.72;5072683;28;19923;-48
2022/09/13 09:44:57;;;;;;;;;;;;;;;30.77;40.34;98184.59;5072650;28;19916;-48
2022/09/13 09:47:24;;;;;;;;;;;;;;;30.59;40.70;98189.53;5072174;28;20283;-50
2022/09/13 09:50:17;;;;;;;;;;;;;;;30.90;40.45;98176.44;5072555;28;20050;-49
2022/09/13 09:53:01;;;;;;;;;;;;;;;31.70;39.42;98160.94;5069817;28;20019;-50
2022/09/13 09:55:46;;;;;;;;;;;;;;;31.75;38.40;98160.66;5054562;28;19920;-50
2022/09/13 09:58:15;;;;;;;;;;;;;;;31.76;38.58;98164.97;5072517;28;19917;-50
2022/09/13 10:00:51;;;;;;;;;;;;;;;31.74;38.67;98176.16;5054361;28;19923;-50
2022/09/13 10:03:18;;;;;;;;;;;;;;;31.75;38.96;98182.38;5072452;28;19920;-50
2022/09/13 10:05:45;;;;;;;;;;;;;;;31.68;38.91;98177.56;5072340;28;19916;-48
2022/09/13 10:08:24;;;;;;;;;;;;;;;32.16;38.99;98180.19;5054627;28;20016;-50
2022/09/13 10:10:54;;;;;;;;;;;;;;;32.31;37.88;98178.56;5072191;28;19916;-49
2022/09/13 10:13:20;;;;;;;;;;;;;;;31.86;38.61;98169.84;5072283;28;19920;-49
2022/09/13 10:16:02;;;;;;;;;;;;;;;32.19;38.63;98176.75;5072211;28;19920;-48
2022/09/13 10:18:32;;;;;;;;;;;;;;;33.22;37.25;98180.69;5054238;28;19966;-50
2022/09/13 10:21:05;;;;;;;;;;;;;;;34.97;33.96;98170.53;5072125;28;19921;-50
2022/09/13 10:23:32;;;;;;;;;;;;;;;35.85;32.47;98156.38;5054140;28;20344;-50
2022/09/13 10:26:01;;;;;;;;;;;;;;;36.19;30.96;98165.94;5071874;28;20428;-50
2022/09/13 10:28:29;;;;;;;;;;;;;;;35.79;31.42;98162.19;5072145;28;20026;-49
2022/09/13 10:30:56;;;;;;;;;;;;;;;35.29;31.78;98169.25;5072081;28;19917;-49
2022/09/13 10:33:24;;;;;;;;;;;;;;;35.00;32.49;98180.69;5053989;28;20007;-50
2022/09/13 10:35:55;;;;;;;;;;;;;;;34.41;33.07;98174.22;5072017;28;19916;-49
2022/09/13 10:38:26;;;;;;;;;;;;;;;33.93;33.85;98166.59;5072065;28;19960;-49
2022/09/13 10:40:52;;;;;;;;;;;;;;;33.65;34.36;98172.41;5053904;28;20401;-50
2022/09/13 10:43:18;;;;;;;;;;;;;;;33.81;34.39;98164.09;5071968;28;19921;-48
2022/09/13 10:45:48;;;;;;;;;;;;;;;33.81;34.28;98159.44;5071801;28;19928;-50
2022/09/13 10:48:15;;;;;;;;;;;;;;;33.58;35.03;98153.22;5053870;28;19920;-49
2022/09/13 10:50:58;;;;;;;;;;;;;;;33.22;35.26;98155.41;5071862;28;19966;-50
2022/09/13 10:53:44;;;;;;;;;;;;;;;33.33;35.10;98150.13;5071940;28;19966;-49
2022/09/13 10:56:24;;;;;;;;;;;;;;;33.38;35.42;98153.34;5053428;28;20536;-48
2022/09/13 10:59:09;;;;;;;;;;;;;;;33.58;35.02;98150.50;5055623;28;19916;-49
2022/09/13 11:01:43;;;;;;;;;;;;;;;33.41;35.12;98157.25;5075237;28;19974;-48
2022/09/13 11:04:27;;;;;;;;;;;;;;;32.93;35.21;98149.47;5075958;28;19921;-49
2022/09/13 11:06:55;;;;;;;;;;;;;;;32.52;36.27;98146.38;5075704;28;19971;-49
2022/09/13 11:09:23;;;;;;;;;;;;;;;32.21;36.94;98141.88;5075608;28;20394;-49
2022/09/13 11:12:17;;;;;;;;;;;;;;;32.08;37.46;98154.03;5057536;28;19924;-47
2022/09/13 11:15:01;;;;;;;;;;;;;;;32.14;37.82;98145.25;5073214;28;19950;-49
2022/09/13 11:17:45;;;;;;;;;;;;;;;32.29;37.68;98140.88;5075646;28;20494;-50
2022/09/13 11:20:20;;;;;;;;;;;;;;;32.38;37.66;98140.69;5075327;28;19938;-49
2022/09/13 11:22:56;;;;;;;;;;;;;;;32.94;36.88;98136.66;5075356;28;19923;-49
2022/09/13 11:25:22;;;;;;;;;;;;;;;33.93;35.34;98141.31;5075040;28;19958;-48
2022/09/13 11:27:47;;;;;;;;;;;;;;;33.82;34.67;98139.19;5075281;28;20415;-49
2022/09/13 11:30:18;;;;;;;;;;;;;;;33.48;35.10;98124.69;5057233;28;19916;-49
2022/09/13 11:32:52;;;;;;;;;;;;;;;33.12;35.49;98123.38;5075390;28;19916;-48
2022/09/13 11:35:36;;;;;;;;;;;;;;;33.32;35.94;98124.84;5057139;28;19927;-48
2022/09/13 11:38:14;;;;;;;;;;;;;;;33.49;35.36;98125.50;5075034;28;20007;-49
2022/09/13 11:40:52;;;;;;;;;;;;;;;33.23;35.40;98132.50;5056963;28;20007;-50
2022/09/13 11:43:26;;;;;;;;;;;;;;;32.35;36.40;98104.13;5074952;28;19928;-49
2022/09/13 11:46:10;;;;;;;;;;;;;;;31.84;37.24;98101.56;5056918;28;19920;-48
2022/09/13 11:48:35;;;;;;;;;;;;;;;31.80;37.58;98120.47;5074828;28;19928;-50
2022/09/13 11:51:19;;;;;;;;;;;;;;;31.73;38.07;98089.69;5074817;28;19917;-48
2022/09/13 11:54:06;;;;;;;;;;;;;;;31.89;38.18;98095.84;5074767;28;19920;-50
2022/09/13 11:56:36;;;;;;;;;;;;;;;32.67;36.83;98068.66;5074725;28;19963;-50
2022/09/13 11:59:07;;;;;;;;;;;;;;;32.89;36.09;98082.59;5074706;28;19916;-49
2022/09/13 12:01:37;;;;;;;;;;;;;;;32.52;36.60;98054.00;5074564;28;20350;-50
2022/09/13 12:04:23;;;;;;;;;;;;;;;32.07;38.29;98074.50;5056595;28;19916;-49
2022/09/13 12:06:54;;;;;;;;;;;;;;;32.02;37.79;98081.03;5073994;28;19916;-49
2022/09/13 12:09:40;;;;;;;;;;;;;;;31.97;38.24;98070.41;5074247;28;19948;-49
2022/09/13 12:12:14;;;;;;;;;;;;;;;32.28;38.19;98063.28;5073923;28;19923;-49
2022/09/13 12:14:52;;;;;;;;;;;;;;;32.57;37.73;98061.09;5074445;28;19999;-49
2022/09/13 12:17:29;;;;;;;;;;;;;;;32.68;37.18;98085.72;5039745;28;19921;-49
2022/09/13 12:19:57;;;;;;;;;;;;;;;32.54;37.07;98051.72;5074209;28;20034;-48
2022/09/13 12:22:25;;;;;;;;;;;;;;;32.06;37.86;98074.88;5056184;28;19917;-51
2022/09/13 12:24:57;;;;;;;;;;;;;;;32.07;38.46;98047.38;5056239;28;19920;-50
2022/09/13 12:27:44;;;;;;;;;;;;;;;32.41;37.35;98047.59;5074134;28;20409;-50
2022/09/13 12:30:15;;;;;;;;;;;;;;;32.77;37.12;98048.25;5074078;28;19920;-49
2022/09/13 12:32:43;;;;;;;;;;;;;;;33.07;36.38;98044.81;5056076;28;19990;-48
2022/09/13 12:35:09;;;;;;;;;;;;;;;32.86;36.56;98039.81;5073869;28;19917;-49
2022/09/13 12:37:52;;;;;;;;;;;;;;;32.39;37.73;98036.31;5074275;28;19916;-49
2022/09/13 12:40:42;;;;;;;;;;;;;;;31.84;39.04;98047.28;5055853;28;19916;-50
2022/09/13 12:43:26;;;;;;;;;;;;;;;31.48;39.51;98016.72;5073895;28;20011;-50
2022/09/13 12:45:53;;;;;;;;;;;;;;;31.13;40.49;98060.06;5073752;28;20422;-49
2022/09/13 12:48:30;;;;;;;;;;;;;;;30.88;41.05;98035.06;5073766;28;19960;-48
2022/09/13 12:50:58;;;;;;;;;;;;;;;30.74;41.31;98047.13;5073922;28;19916;-49
2022/09/13 12:53:44;;;;;;;;;;;;;;;30.76;41.23;98034.00;5073726;28;20027;-50
2022/09/13 12:56:09;;;;;;;;;;;;;;;30.59;41.19;98035.16;5073655;28;20286;-50
2022/09/13 12:58:53;;;;;;;;;;;;;;;30.73;41.82;98056.41;5073509;28;20331;-48
2022/09/13 13:01:20;;;;;;;;;;;;;;;31.01;40.90;98031.16;5073399;28;19916;-49
2022/09/13 13:03:54;;;;;;;;;;;;;;;31.10;40.63;98049.94;5073428;28;19960;-47